createdAt,value
2019-02-07T00:00:01.470Z,88.30
2019-02-07T00:02:34.112Z,88.40
2019-02-07T00:05:05.481Z,88.80
2019-02-07T00:07:36.614Z,87.90
2019-02-07T00:10:09.272Z,87.90
2019-02-07T00:15:54.790Z,88.40
2019-02-07T00:18:26.358Z,89.00
2019-02-07T00:20:57.762Z,88.60
2019-02-07T00:23:29.208Z,88.90
2019-02-07T00:26:00.107Z,88.80
2019-02-07T00:28:31.148Z,89.00
2019-02-07T00:31:01.886Z,89.60
2019-02-07T00:33:32.821Z,89.70
2019-02-07T00:36:03.709Z,89.60
2019-02-07T00:38:34.646Z,89.40
2019-02-07T00:41:05.695Z,89.20
2019-02-07T00:43:36.560Z,89.70
2019-02-07T00:46:07.523Z,90.00
2019-02-07T00:48:38.453Z,89.10
2019-02-07T00:51:09.775Z,89.70
2019-02-07T00:53:40.695Z,89.70
2019-02-07T00:56:11.259Z,90.00
2019-02-07T00:58:43.320Z,90.10
2019-02-07T01:01:14.053Z,90.20
2019-02-07T01:03:45.161Z,90.20
2019-02-07T01:06:15.867Z,90.20
2019-02-07T01:09:06.203Z,90.20
2019-02-07T01:11:37.248Z,90.20
2019-02-07T01:14:07.982Z,90.20
2019-02-07T01:16:39.421Z,90.20
2019-02-07T01:19:10.719Z,90.20
2019-02-07T01:21:41.710Z,90.20
2019-02-07T01:24:12.505Z,90.10
2019-02-07T01:26:44.838Z,89.30
2019-02-07T01:29:16.371Z,89.40
2019-02-07T01:31:49.344Z,89.60
2019-02-07T01:34:20.466Z,88.50
2019-02-07T01:36:52.184Z,89.20
2019-02-07T01:39:24.370Z,89.00
2019-02-07T01:41:55.756Z,88.70
2019-02-07T01:44:26.688Z,89.30
2019-02-07T01:46:58.831Z,89.60
2019-02-07T01:49:29.469Z,89.40
2019-02-07T01:52:00.301Z,89.20
2019-02-07T01:54:31.156Z,90.00
2019-02-07T01:57:01.766Z,89.70
2019-02-07T01:59:32.703Z,90.00
2019-02-07T02:02:03.741Z,89.90
2019-02-07T02:04:34.634Z,89.70
2019-02-07T02:07:05.714Z,89.60
2019-02-07T02:09:36.627Z,90.00
2019-02-07T02:12:07.834Z,90.10
2019-02-07T02:14:39.233Z,90.20
2019-02-07T02:17:11.364Z,90.40
2019-02-07T02:19:42.027Z,90.10
2019-02-07T02:22:13.353Z,90.00
2019-02-07T02:24:45.258Z,90.00
2019-02-07T02:27:16.282Z,90.00
2019-02-07T02:29:47.667Z,89.70
2019-02-07T02:32:18.492Z,90.30
2019-02-07T02:34:49.718Z,89.90
2019-02-07T02:37:20.844Z,90.00
2019-02-07T02:39:52.097Z,90.00
2019-02-07T02:42:23.345Z,90.00
2019-02-07T02:44:54.418Z,90.10
2019-02-07T02:47:25.555Z,90.20
2019-02-07T02:49:56.477Z,90.30
2019-02-07T02:52:27.132Z,90.30
2019-02-07T02:54:59.123Z,90.30
2019-02-07T02:57:30.113Z,89.70
2019-02-07T03:00:01.026Z,90.00
2019-02-07T03:02:41.090Z,90.00
2019-02-07T03:05:48.420Z,90.00
2019-02-07T03:08:38.058Z,90.10
2019-02-07T03:11:34.875Z,90.50
2019-02-07T03:14:24.598Z,90.30
2019-02-07T03:17:20.371Z,90.00
2019-02-07T03:20:10.379Z,90.00
2019-02-07T03:23:03.082Z,90.00
2019-02-07T03:25:58.943Z,90.40
2019-02-07T03:28:47.462Z,90.40
2019-02-07T03:31:38.059Z,90.30
2019-02-07T03:34:43.144Z,90.40
2019-02-07T03:37:30.749Z,90.00
2019-02-07T03:40:19.472Z,89.70
2019-02-07T03:43:18.366Z,90.00
2019-02-07T03:46:26.255Z,90.00
2019-02-07T03:49:21.873Z,90.00
2019-02-07T03:52:14.621Z,90.10
2019-02-07T03:55:04.386Z,90.10
2019-02-07T03:58:00.381Z,90.30
2019-02-07T04:00:53.481Z,90.50
2019-02-07T04:03:52.421Z,90.40
2019-02-07T04:06:44.861Z,90.50
2019-02-07T04:09:33.684Z,90.00
2019-02-07T04:12:26.826Z,90.20
2019-02-07T04:15:22.857Z,90.40
2019-02-07T04:18:11.766Z,90.70
2019-02-07T04:21:00.668Z,91.00
2019-02-07T04:24:08.403Z,91.10
2019-02-07T04:27:04.327Z,91.20
2019-02-07T04:30:03.079Z,91.30
2019-02-07T04:32:51.790Z,91.00
2019-02-07T04:35:35.742Z,90.80
2019-02-07T04:38:28.336Z,91.10
2019-02-07T04:41:17.144Z,90.50
2019-02-07T04:44:04.466Z,90.70
2019-02-07T04:47:05.349Z,90.70
2019-02-07T04:50:09.095Z,90.90
2019-02-07T04:52:59.289Z,90.80
2019-02-07T04:55:47.993Z,91.60
2019-02-07T04:58:45.529Z,91.50
2019-02-07T05:01:34.461Z,91.40
2019-02-07T05:04:33.259Z,90.90
2019-02-07T05:07:15.999Z,90.80
2019-02-07T05:10:14.701Z,90.70
2019-02-07T05:13:07.901Z,90.70
2019-02-07T05:16:06.466Z,90.50
2019-02-07T05:18:56.186Z,90.40
2019-02-07T05:21:48.654Z,90.90
2019-02-07T05:24:47.589Z,90.70
2019-02-07T05:27:36.189Z,91.00
2019-02-07T05:30:25.509Z,91.00
2019-02-07T05:33:27.506Z,91.20
2019-02-07T05:36:35.774Z,91.10
2019-02-07T05:39:34.646Z,91.40
2019-02-07T05:42:34.050Z,91.60
2019-02-07T05:45:24.177Z,92.20
2019-02-07T05:48:30.361Z,91.10
2019-02-07T05:51:20.948Z,90.70
2019-02-07T05:54:10.730Z,90.30
2019-02-07T05:57:06.287Z,90.10
2019-02-07T05:59:59.308Z,90.70
2019-02-07T06:02:46.432Z,91.00
2019-02-07T06:05:51.321Z,91.00
2019-02-07T06:08:42.948Z,91.10
2019-02-07T06:11:31.863Z,90.70
2019-02-07T06:14:27.127Z,90.30
2019-02-07T06:17:16.027Z,90.80
2019-02-07T06:19:54.701Z,91.50
2019-02-07T06:22:43.017Z,91.90
2019-02-07T06:25:38.817Z,92.30
2019-02-07T06:28:29.576Z,92.40
2019-02-07T06:31:19.616Z,92.10
2019-02-07T06:34:07.976Z,91.90
2019-02-07T06:36:53.131Z,91.40
2019-02-07T06:39:52.275Z,90.60
2019-02-07T06:42:41.758Z,90.20
2019-02-07T06:45:23.497Z,90.20
2019-02-07T06:48:11.942Z,88.70
2019-02-07T06:50:55.285Z,87.50
2019-02-07T06:53:53.641Z,86.30
2019-02-07T06:57:02.261Z,85.50
2019-02-07T06:59:54.876Z,84.40
2019-02-07T07:02:47.590Z,83.80
2019-02-07T07:05:40.245Z,82.70
2019-02-07T07:08:30.616Z,82.00
2019-02-07T07:11:23.256Z,81.60
2019-02-07T07:14:13.751Z,80.50
2019-02-07T07:17:03.702Z,79.80
2019-02-07T07:20:01.450Z,78.80
2019-02-07T07:22:54.179Z,78.80
2019-02-07T07:25:44.810Z,77.10
2019-02-07T07:28:43.842Z,76.30
2019-02-07T07:31:52.228Z,75.80
2019-02-07T07:34:40.897Z,75.70
2019-02-07T07:37:28.133Z,73.60
2019-02-07T07:40:17.898Z,73.20
2019-02-07T07:43:10.961Z,72.70
2019-02-07T07:46:09.557Z,71.80
2019-02-07T07:49:13.099Z,70.60
2019-02-07T07:52:01.257Z,70.10
2019-02-07T07:54:49.609Z,68.50
2019-02-07T07:57:38.811Z,68.50
2019-02-07T08:00:28.829Z,68.40
2019-02-07T08:03:31.037Z,68.00
2019-02-07T08:06:20.884Z,68.20
2019-02-07T08:09:07.627Z,67.30
2019-02-07T08:11:55.050Z,66.30
2019-02-07T08:14:48.871Z,65.70
2019-02-07T08:17:32.222Z,65.60
2019-02-07T08:20:20.625Z,66.30
2019-02-07T08:23:02.656Z,64.90
2019-02-07T08:25:51.133Z,65.70
2019-02-07T08:28:40.452Z,64.40
2019-02-07T08:31:33.185Z,65.30
2019-02-07T08:34:33.862Z,63.20
2019-02-07T08:37:23.814Z,62.80
2019-02-07T08:40:11.958Z,62.50
2019-02-07T08:43:13.988Z,61.40
2019-02-07T08:46:01.870Z,60.70
2019-02-07T08:48:51.297Z,59.20
2019-02-07T08:51:40.765Z,58.30
2019-02-07T08:54:42.857Z,59.00
2019-02-07T08:57:38.935Z,57.90
2019-02-07T09:00:40.651Z,55.00
2019-02-07T09:03:22.330Z,55.00
2019-02-07T09:06:21.383Z,55.70
2019-02-07T09:09:20.203Z,55.60
2019-02-07T09:12:08.669Z,56.10
2019-02-07T09:14:49.932Z,53.00
2019-02-07T09:17:43.491Z,54.10
2019-02-07T09:20:45.904Z,53.30
2019-02-07T09:23:41.654Z,52.80
2019-02-07T09:26:29.995Z,50.90
2019-02-07T09:29:32.192Z,51.80
2019-02-07T09:32:30.835Z,52.40
2019-02-07T09:35:19.497Z,54.10
2019-02-07T09:38:08.166Z,51.70
2019-02-07T09:40:57.928Z,51.10
2019-02-07T09:43:46.772Z,51.20
2019-02-07T09:46:35.426Z,49.90
2019-02-07T09:49:25.099Z,50.20
2019-02-07T09:52:24.036Z,50.10
2019-02-07T09:55:13.075Z,49.30
2019-02-07T09:58:14.789Z,51.00
2019-02-07T10:01:05.815Z,51.00
2019-02-07T10:03:51.111Z,51.20
2019-02-07T10:06:41.670Z,51.50
2019-02-07T10:09:23.456Z,52.00
2019-02-07T10:12:12.157Z,55.40
2019-02-07T10:15:00.489Z,54.80
2019-02-07T10:17:48.201Z,51.30
2019-02-07T10:20:46.466Z,51.30
2019-02-07T10:23:39.318Z,51.20
2019-02-07T10:26:35.008Z,50.10
2019-02-07T10:29:20.215Z,50.50
2019-02-07T10:32:10.669Z,50.50
2019-02-07T10:35:22.661Z,49.50
2019-02-07T10:38:10.199Z,49.10
2019-02-07T10:40:59.867Z,49.20
2019-02-07T10:43:53.497Z,50.50
2019-02-07T10:46:43.101Z,49.80
2019-02-07T10:49:39.062Z,50.50
2019-02-07T10:52:31.738Z,51.10
2019-02-07T10:55:27.496Z,51.60
2019-02-07T10:58:14.716Z,50.60
2019-02-07T11:00:58.605Z,51.00
2019-02-07T11:03:48.898Z,52.20
2019-02-07T11:06:36.663Z,51.80
2019-02-07T11:09:26.891Z,51.80
2019-02-07T11:12:16.735Z,51.80
2019-02-07T11:15:15.616Z,50.90
2019-02-07T11:17:56.122Z,51.80
2019-02-07T11:20:39.651Z,50.70
2019-02-07T11:23:29.526Z,51.80
2019-02-07T11:26:34.549Z,52.40
2019-02-07T11:29:23.438Z,53.40
2019-02-07T11:32:12.259Z,53.60
2019-02-07T11:35:01.513Z,54.10
2019-02-07T11:37:47.138Z,54.80
2019-02-07T11:40:43.870Z,53.90
2019-02-07T11:43:32.228Z,54.50
2019-02-07T11:46:20.697Z,54.60
2019-02-07T11:49:10.270Z,55.40
2019-02-07T11:52:06.998Z,54.80
2019-02-07T11:55:09.097Z,54.50
2019-02-07T11:57:58.027Z,54.50
2019-02-07T12:00:45.331Z,54.30
2019-02-07T12:03:36.260Z,53.80
2019-02-07T12:06:35.289Z,53.10
2019-02-07T12:09:47.084Z,53.10
2019-02-07T12:12:55.093Z,53.10
2019-02-07T12:15:38.707Z,53.00
2019-02-07T12:18:31.207Z,52.80
2019-02-07T12:21:19.909Z,52.70
2019-02-07T12:24:09.000Z,52.50
2019-02-07T12:26:52.849Z,52.80
2019-02-07T12:29:46.053Z,53.20
2019-02-07T12:32:28.343Z,53.60
2019-02-07T12:35:18.054Z,53.50
2019-02-07T12:38:07.043Z,53.20
2019-02-07T12:41:07.995Z,53.10
2019-02-07T12:43:56.859Z,53.50
2019-02-07T12:46:46.506Z,53.50
2019-02-07T12:49:36.396Z,53.80
2019-02-07T12:52:20.162Z,54.30
2019-02-07T12:55:28.756Z,54.80
2019-02-07T12:58:27.544Z,55.30
2019-02-07T13:01:16.092Z,55.90
2019-02-07T13:04:06.546Z,56.70
2019-02-07T13:06:58.914Z,57.60
2019-02-07T13:09:54.524Z,57.00
2019-02-07T13:12:50.164Z,57.30
2019-02-07T13:15:48.660Z,57.60
2019-02-07T13:18:36.608Z,57.70
2019-02-07T13:21:22.039Z,57.90
2019-02-07T13:24:10.373Z,58.20
2019-02-07T13:26:58.963Z,58.50
2019-02-07T13:29:59.638Z,58.90
2019-02-07T13:32:44.248Z,58.50
2019-02-07T13:35:36.916Z,59.20
2019-02-07T13:38:25.445Z,59.50
2019-02-07T13:41:14.127Z,58.90
2019-02-07T13:44:02.784Z,58.40
2019-02-07T13:46:58.726Z,59.20
2019-02-07T13:49:52.071Z,58.30
2019-02-07T13:52:45.570Z,58.40
2019-02-07T13:55:38.417Z,60.20
2019-02-07T13:58:26.454Z,59.60
2019-02-07T14:01:23.874Z,58.20
2019-02-07T14:04:20.118Z,59.20
2019-02-07T14:07:08.471Z,60.20
2019-02-07T14:09:56.579Z,60.60
2019-02-07T14:12:49.004Z,60.10
2019-02-07T14:15:44.904Z,60.20
2019-02-07T14:18:40.799Z,59.70
2019-02-07T14:21:36.854Z,60.00
2019-02-07T14:24:25.392Z,60.10
2019-02-07T14:27:21.022Z,60.60
2019-02-07T14:30:14.332Z,60.60
2019-02-07T14:33:04.034Z,60.10
2019-02-07T14:35:54.728Z,60.50
2019-02-07T14:38:53.488Z,60.10
2019-02-07T14:41:52.171Z,60.20
2019-02-07T14:44:44.637Z,60.50
2019-02-07T14:47:15.341Z,61.10
2019-02-07T14:49:46.283Z,60.70
2019-02-07T14:52:17.622Z,61.10
2019-02-07T14:54:48.801Z,61.30
2019-02-07T14:57:19.713Z,61.00
2019-02-07T14:59:51.370Z,61.00
2019-02-07T15:02:22.880Z,61.10
2019-02-07T15:04:53.859Z,61.20
2019-02-07T15:07:25.368Z,61.00
2019-02-07T15:09:56.538Z,60.30
2019-02-07T15:12:27.772Z,60.60
2019-02-07T15:14:58.967Z,60.60
2019-02-07T15:17:29.847Z,61.20
2019-02-07T15:20:01.008Z,60.20
2019-02-07T15:22:32.214Z,60.80
2019-02-07T15:25:03.323Z,60.80
2019-02-07T15:27:34.359Z,61.20
2019-02-07T15:30:07.346Z,61.50
2019-02-07T15:32:41.977Z,61.90
2019-02-07T15:35:17.388Z,62.60
2019-02-07T15:37:48.491Z,62.80
2019-02-07T15:40:22.225Z,62.80
2019-02-07T15:42:53.796Z,63.00
2019-02-07T15:45:25.978Z,63.40
2019-02-07T15:47:56.694Z,64.00
2019-02-07T15:50:37.745Z,64.60
2019-02-07T15:53:03.216Z,65.00
2019-02-07T15:55:34.036Z,65.30
2019-02-07T15:58:04.982Z,65.60
2019-02-07T16:01:13.007Z,65.90
2019-02-07T16:04:05.201Z,67.20
2019-02-07T16:06:36.165Z,66.50
2019-02-07T16:09:08.800Z,67.00
2019-02-07T16:11:40.425Z,67.30
2019-02-07T16:14:11.472Z,67.40
2019-02-07T16:16:42.395Z,67.80
2019-02-07T16:19:13.028Z,67.80
2019-02-07T16:21:43.708Z,68.10
2019-02-07T16:24:16.009Z,68.30
2019-02-07T16:26:47.380Z,68.80
2019-02-07T16:29:18.135Z,69.00
2019-02-07T16:31:48.971Z,69.00
2019-02-07T16:34:19.890Z,69.20
2019-02-07T16:36:51.384Z,69.40
2019-02-07T16:39:22.704Z,69.60
2019-02-07T16:41:53.609Z,69.80
2019-02-07T16:44:25.140Z,69.80
2019-02-07T16:46:56.332Z,70.20
2019-02-07T16:49:27.302Z,70.20
2019-02-07T16:51:58.118Z,70.30
2019-02-07T16:54:29.088Z,70.90
2019-02-07T16:57:00.222Z,70.20
2019-02-07T16:59:31.734Z,71.00
2019-02-07T17:02:02.408Z,71.40
2019-02-07T17:04:33.182Z,71.40
2019-02-07T17:07:04.243Z,71.90
2019-02-07T17:09:36.824Z,72.10
2019-02-07T17:12:08.143Z,72.20
2019-02-07T17:14:39.255Z,72.60
2019-02-07T17:17:10.318Z,73.00
2019-02-07T17:19:41.298Z,73.10
2019-02-07T17:22:13.480Z,73.30
2019-02-07T17:24:44.663Z,73.70
2019-02-07T17:27:16.043Z,73.70
2019-02-07T17:29:47.271Z,73.60
2019-02-07T17:32:18.084Z,74.10
2019-02-07T17:34:48.918Z,74.20
2019-02-07T17:37:19.786Z,74.60
2019-02-07T17:39:50.841Z,75.50
2019-02-07T17:42:21.530Z,75.10
2019-02-07T17:44:52.466Z,74.70
2019-02-07T17:47:23.799Z,75.00
2019-02-07T17:49:55.060Z,74.90
2019-02-07T17:52:26.702Z,75.60
2019-02-07T17:54:57.544Z,75.70
2019-02-07T17:57:28.685Z,75.90
2019-02-07T17:59:59.771Z,76.10
2019-02-07T18:02:30.701Z,76.40
2019-02-07T18:05:02.117Z,76.60
2019-02-07T18:07:34.111Z,76.90
2019-02-07T18:10:07.424Z,77.50
2019-02-07T18:12:38.125Z,77.10
2019-02-07T18:15:09.207Z,77.20
2019-02-07T18:17:40.101Z,77.20
2019-02-07T18:20:12.157Z,77.50
2019-02-07T18:22:43.313Z,77.20
2019-02-07T18:25:14.592Z,77.20
2019-02-07T18:27:46.505Z,77.20
2019-02-07T18:30:18.997Z,77.10
2019-02-07T18:32:50.667Z,77.10
2019-02-07T18:35:21.464Z,77.10
2019-02-07T18:37:52.449Z,77.10
2019-02-07T18:40:25.654Z,77.20
2019-02-07T18:42:56.806Z,77.60
2019-02-07T18:45:27.883Z,77.50
2019-02-07T18:47:58.616Z,77.90
2019-02-07T18:50:32.602Z,77.80
2019-02-07T18:53:04.814Z,77.10
2019-02-07T18:55:38.604Z,77.10
2019-02-07T18:58:09.700Z,77.00
2019-02-07T19:00:40.896Z,77.00
2019-02-07T19:03:12.210Z,77.60
2019-02-07T19:05:43.695Z,76.30
2019-02-07T19:08:15.167Z,75.60
2019-02-07T19:10:46.827Z,75.30
2019-02-07T19:13:17.882Z,75.10
2019-02-07T19:15:53.693Z,74.00
2019-02-07T19:18:24.942Z,73.00
2019-02-07T19:20:56.221Z,72.50
2019-02-07T19:23:27.943Z,72.10
2019-02-07T19:25:58.983Z,71.60
2019-02-07T19:28:30.180Z,70.20
2019-02-07T19:31:02.317Z,69.00
2019-02-07T19:33:34.834Z,67.10
2019-02-07T19:36:06.034Z,65.50
2019-02-07T19:38:38.132Z,64.90
2019-02-07T19:41:09.941Z,64.40
2019-02-07T19:43:40.986Z,64.80
2019-02-07T19:46:13.487Z,65.20
2019-02-07T19:48:44.634Z,66.30
2019-02-07T19:51:15.710Z,67.40
2019-02-07T19:53:47.627Z,69.00
2019-02-07T19:56:18.607Z,69.60
2019-02-07T19:58:49.830Z,70.70
2019-02-07T20:01:20.550Z,71.90
2019-02-07T20:03:51.772Z,72.10
2019-02-07T20:06:22.852Z,71.90
2019-02-07T20:08:53.815Z,71.40
2019-02-07T20:11:24.703Z,70.90
2019-02-07T20:13:55.786Z,70.80
2019-02-07T20:16:27.150Z,70.70
2019-02-07T20:18:58.113Z,71.00
2019-02-07T20:21:29.452Z,71.30
2019-02-07T20:24:00.946Z,71.60
2019-02-07T20:26:32.243Z,71.60
2019-02-07T20:29:03.237Z,71.60
2019-02-07T20:31:35.435Z,71.60
2019-02-07T20:34:06.715Z,71.90
2019-02-07T20:36:38.312Z,72.00
2019-02-07T20:39:10.299Z,72.60
2019-02-07T20:41:41.675Z,72.90
2019-02-07T20:44:13.040Z,72.60
2019-02-07T20:46:43.957Z,72.80
2019-02-07T20:49:15.419Z,72.80
2019-02-07T20:51:46.204Z,73.30
2019-02-07T20:54:17.022Z,73.30
2019-02-07T20:56:47.869Z,73.80
2019-02-07T20:59:21.439Z,74.10
2019-02-07T21:01:52.612Z,73.90
2019-02-07T21:04:24.073Z,74.00
2019-02-07T21:06:54.925Z,74.20
2019-02-07T21:09:26.453Z,74.50
2019-02-07T21:11:57.735Z,74.70
2019-02-07T21:14:29.151Z,74.70
2019-02-07T21:17:00.067Z,74.80
2019-02-07T21:19:31.529Z,75.10
2019-02-07T21:22:03.610Z,75.80
2019-02-07T21:24:35.317Z,75.20
2019-02-07T21:27:06.508Z,75.60
2019-02-07T21:29:37.413Z,75.90
2019-02-07T21:32:08.794Z,75.60
2019-02-07T21:34:39.663Z,75.70
2019-02-07T21:37:10.975Z,75.90
2019-02-07T21:39:42.059Z,75.80
2019-02-07T21:42:14.042Z,75.90
2019-02-07T21:44:45.239Z,76.40
2019-02-07T21:47:17.644Z,76.30
2019-02-07T21:49:48.548Z,76.40
2019-02-07T21:52:19.738Z,76.40
2019-02-07T21:54:51.224Z,76.40
2019-02-07T21:57:22.729Z,76.30
2019-02-07T22:00:00.748Z,76.30
2019-02-07T22:02:27.975Z,76.30
2019-02-07T22:04:59.252Z,76.30
2019-02-07T22:07:30.437Z,76.40
2019-02-07T22:10:01.704Z,76.30
2019-02-07T22:12:32.634Z,76.30
2019-02-07T22:15:06.824Z,76.40
2019-02-07T22:17:38.245Z,76.60
2019-02-07T22:20:15.453Z,76.70
2019-02-07T22:22:49.300Z,77.10
2019-02-07T22:25:20.261Z,77.30
2019-02-07T22:27:51.990Z,77.50
2019-02-07T22:30:29.197Z,77.80
2019-02-07T22:33:00.463Z,77.90
2019-02-07T22:35:32.799Z,78.20
2019-02-07T22:38:04.358Z,78.30
2019-02-07T22:40:35.907Z,78.30
2019-02-07T22:43:08.868Z,78.70
2019-02-07T22:45:39.831Z,78.60
2019-02-07T22:48:12.900Z,79.00
2019-02-07T22:50:43.908Z,79.00
2019-02-07T22:53:15.079Z,79.80
2019-02-07T22:55:45.845Z,79.20
2019-02-07T22:58:17.131Z,79.60
2019-02-07T23:01:31.746Z,79.40
2019-02-07T23:04:06.243Z,79.60
2019-02-07T23:06:37.642Z,79.80
2019-02-07T23:09:14.846Z,79.60
2019-02-07T23:11:46.243Z,79.80
2019-02-07T23:14:17.502Z,79.90
2019-02-07T23:16:48.509Z,79.90
2019-02-07T23:19:20.350Z,80.10
2019-02-07T23:21:51.322Z,79.90
2019-02-07T23:24:22.089Z,80.10
2019-02-07T23:26:53.549Z,80.50
2019-02-07T23:29:24.674Z,80.10
2019-02-07T23:31:55.785Z,80.00
2019-02-07T23:34:26.946Z,80.50
2019-02-07T23:36:57.989Z,80.00
2019-02-07T23:39:29.145Z,80.00
2019-02-07T23:42:00.426Z,80.70
2019-02-07T23:44:31.464Z,80.00
2019-02-07T23:47:02.276Z,79.90
2019-02-07T23:49:33.269Z,80.20
2019-02-07T23:52:04.082Z,80.20
2019-02-07T23:54:35.355Z,80.40
2019-02-07T23:57:06.128Z,79.90
2019-02-07T23:59:37.525Z,80.00
